Time;durP1;ratioP1;P1;durP2;ratioP2;P2;SDS_P1;SDS_P2;PMS_P1;PMS_P2;Temp;Humidity;BMP_temperature;BMP_pressure;BME280_temperature;BME280_humidity;BME280_pressure;Samples;Min_cycle;Max_cycle;Signal;HPM_P1;HPM_P2
2023/01/16 00:01:39;;;;;;;233.27;101.55;;;;;;;;;;4904449;29;20416;-80
2023/01/16 00:04:24;;;;;;;216.88;96.57;;;;;;;;;;4904132;29;20049;-79
2023/01/16 00:07:10;;;;;;;198.70;93.65;;;;;;;;;;4904248;29;20045;-79
2023/01/16 00:09:55;;;;;;;202.18;92.20;;;;;;;;;;4903655;29;20514;-82
2023/01/16 00:12:41;;;;;;;187.45;85.38;;;;;;;;;;4896484;29;20040;-81
2023/01/16 00:15:27;;;;;;;171.50;76.15;;;;;;;;;;4896346;29;20045;-83
2023/01/16 00:18:12;;;;;;;174.57;74.63;;;;;;;;;;4903129;29;20479;-79
2023/01/16 00:20:58;;;;;;;160.43;75.03;;;;;;;;;;4904127;29;20049;-79
2023/01/16 00:23:43;;;;;;;162.95;74.85;;;;;;;;;;4897921;29;20044;-77
2023/01/16 00:26:29;;;;;;;182.70;80.70;;;;;;;;;;4897961;29;20036;-78
2023/01/16 00:29:14;;;;;;;166.23;74.03;;;;;;;;;;4904470;29;20052;-81
2023/01/16 00:32:00;;;;;;;166.18;74.63;;;;;;;;;;4890324;29;20048;-80
2023/01/16 00:34:46;;;;;;;165.18;69.32;;;;;;;;;;4893708;29;20052;-81
2023/01/16 00:37:31;;;;;;;145.57;64.40;;;;;;;;;;4901145;29;20053;-80
2023/01/16 00:40:22;;;;;;;146.20;61.45;;;;;;;;;;4893725;29;20486;-81
2023/01/16 00:43:13;;;;;;;141.23;57.20;;;;;;;;;;4893329;29;20040;-82
2023/01/16 00:46:47;;;;;;;157.95;65.35;;;;;;;;;;4894516;29;20052;-81
2023/01/16 00:54:23;;;;;;;145.73;61.20;;;;;;;;;;4863638;29;20053;-79
2023/01/16 00:57:42;;;;;;;146.77;57.88;;;;;;;;;;4890358;29;20048;-79
2023/01/16 01:00:39;;;;;;;151.48;67.88;;;;;;;;;;4889442;29;20078;-80
2023/01/16 01:04:22;;;;;;;164.25;72.55;;;;;;;;;;4906437;29;20061;-78
2023/01/16 01:07:43;;;;;;;160.73;68.18;;;;;;;;;;4900058;29;20399;-81
2023/01/16 01:10:28;;;;;;;156.98;71.28;;;;;;;;;;4893073;29;20056;-82
2023/01/16 01:13:32;;;;;;;160.65;72.60;;;;;;;;;;4900211;29;20411;-81
2023/01/16 01:16:53;;;;;;;158.25;69.03;;;;;;;;;;4892888;29;20486;-81
2023/01/16 01:23:53;;;;;;;;;;;;;;;;;;;;;
2023/01/16 01:27:17;;;;;;;137.70;56.88;;;;;;;;;;4842624;29;20068;-81
2023/01/16 01:30:22;;;;;;;138.20;56.83;;;;;;;;;;4897581;29;20048;-79
2023/01/16 01:33:13;;;;;;;123.18;52.63;;;;;;;;;;4893015;29;20486;-78
2023/01/16 01:36:18;;;;;;;136.45;56.88;;;;;;;;;;4879944;29;20037;-78
2023/01/16 01:39:06;;;;;;;115.05;51.10;;;;;;;;;;4893012;29;20052;-79
2023/01/16 01:45:57;;;;;;;127.25;55.70;;;;;;;;;;4900426;29;20045;-80
2023/01/16 01:48:54;;;;;;;127.45;53.45;;;;;;;;;;4899355;29;20048;-82
2023/01/16 01:52:09;;;;;;;117.95;52.10;;;;;;;;;;4900741;29;20502;-82
2023/01/16 01:55:04;;;;;;;151.73;65.28;;;;;;;;;;4905912;29;20236;-80
2023/01/16 01:57:56;;;;;;;139.52;58.13;;;;;;;;;;4898642;29;20414;-80
2023/01/16 02:00:42;;;;;;;131.05;60.53;;;;;;;;;;4888511;29;20052;-80
2023/01/16 02:03:42;;;;;;;134.88;62.47;;;;;;;;;;4900167;29;20056;-80
2023/01/16 02:06:34;;;;;;;116.50;49.63;;;;;;;;;;4900543;29;20049;-79
2023/01/16 02:09:24;;;;;;;178.52;71.13;;;;;;;;;;4900269;29;20050;-82
2023/01/16 02:12:51;;;;;;;;;;;;;;;;;;;;;
2023/01/16 02:28:31;;;;;;;122.88;52.67;;;;;;;;;;4905637;29;20045;-79
2023/01/16 02:31:44;;;;;;;134.48;54.92;;;;;;;;;;4899333;29;20052;-82
2023/01/16 02:34:40;;;;;;;112.90;50.38;;;;;;;;;;4899681;29;20048;-80
2023/01/16 02:37:25;;;;;;;118.85;52.13;;;;;;;;;;4899141;29;20044;-81
2023/01/16 02:40:16;;;;;;;127.07;54.42;;;;;;;;;;4899190;29;20049;-80
2023/01/16 02:43:55;;;;;;;136.07;57.63;;;;;;;;;;4905820;29;20052;-80
2023/01/16 02:46:44;;;;;;;141.38;56.80;;;;;;;;;;4899084;29;20483;-82
2023/01/16 02:49:46;;;;;;;142.38;59.85;;;;;;;;;;4904492;29;20379;-80
2023/01/16 02:53:11;;;;;;;124.30;54.28;;;;;;;;;;4904640;29;20047;-80
2023/01/16 02:56:04;;;;;;;129.07;53.80;;;;;;;;;;4904397;29;20057;-80
2023/01/16 02:58:51;;;;;;;140.23;58.33;;;;;;;;;;4905653;29;20052;-82
2023/01/16 03:01:40;;;;;;;144.77;62.75;;;;;;;;;;4872175;29;20053;-80
2023/01/16 03:04:50;;;;;;;144.18;60.38;;;;;;;;;;4898289;29;20048;-80
2023/01/16 03:08:00;;;;;;;146.27;64.68;;;;;;;;;;4878826;29;20056;-81
2023/01/16 03:14:53;;;;;;;145.65;61.25;;;;;;;;;;4894074;29;20052;-82
2023/01/16 03:18:03;;;;;;;143.00;57.13;;;;;;;;;;4899650;29;20036;-85
2023/01/16 03:21:20;;;;;;;125.00;52.03;;;;;;;;;;4898294;29;20048;-84
2023/01/16 03:24:29;;;;;;;100.30;44.75;;;;;;;;;;4900237;29;20510;-83
2023/01/16 03:27:24;;;;;;;114.28;46.88;;;;;;;;;;4905300;29;20037;-84
2023/01/16 03:30:28;;;;;;;104.50;46.88;;;;;;;;;;4898016;29;20111;-84
2023/01/16 03:33:52;;;;;;;119.55;46.50;;;;;;;;;;4899506;29;20052;-84
2023/01/16 03:36:54;;;;;;;108.70;45.08;;;;;;;;;;4899120;29;20479;-83
2023/01/16 03:39:43;;;;;;;114.22;47.08;;;;;;;;;;4904907;29;20044;-85
2023/01/16 03:42:36;;;;;;;110.43;46.03;;;;;;;;;;4898947;29;20056;-83
2023/01/16 03:45:45;;;;;;;114.45;46.92;;;;;;;;;;4884788;29;20056;-83
2023/01/16 03:48:44;;;;;;;107.45;47.38;;;;;;;;;;4898675;29;20044;-83
2023/01/16 03:51:38;;;;;;;115.47;45.85;;;;;;;;;;4898648;29;20040;-83
2023/01/16 03:54:49;;;;;;;108.05;45.53;;;;;;;;;;4878308;29;20052;-85
2023/01/16 03:57:38;;;;;;;104.60;45.35;;;;;;;;;;4898700;29;20049;-83
2023/01/16 04:00:28;;;;;;;101.53;45.50;;;;;;;;;;4901488;29;20044;-83
2023/01/16 04:03:27;;;;;;;99.47;46.22;;;;;;;;;;4898872;29;20041;-83
2023/01/16 04:06:15;;;;;;;110.18;45.13;;;;;;;;;;4898477;29;20407;-83
2023/01/16 04:09:07;;;;;;;102.20;47.28;;;;;;;;;;4901354;29;20502;-85
2023/01/16 04:11:53;;;;;;;114.18;48.58;;;;;;;;;;4907665;29;20048;-85
2023/01/16 04:14:39;;;;;;;107.57;47.15;;;;;;;;;;4903005;29;20048;-84
2023/01/16 04:17:27;;;;;;;100.78;45.20;;;;;;;;;;4902005;29;20044;-83
2023/01/16 04:20:12;;;;;;;106.85;48.03;;;;;;;;;;4902244;29;20052;-83
2023/01/16 04:22:57;;;;;;;118.43;48.13;;;;;;;;;;4901869;29;20041;-83
2023/01/16 04:25:45;;;;;;;113.63;48.30;;;;;;;;;;4902198;29;20048;-83
2023/01/16 04:28:29;;;;;;;110.80;46.88;;;;;;;;;;4902125;29;20048;-83
2023/01/16 04:31:14;;;;;;;124.63;50.75;;;;;;;;;;4902195;29;20398;-83
2023/01/16 04:34:00;;;;;;;110.97;50.20;;;;;;;;;;4902579;29;20057;-82
2023/01/16 04:36:45;;;;;;;113.90;50.35;;;;;;;;;;4894611;29;20040;-84
2023/01/16 04:39:30;;;;;;;113.55;48.38;;;;;;;;;;4902670;29;20048;-82
2023/01/16 04:42:16;;;;;;;112.40;51.13;;;;;;;;;;4902536;29;20056;-84
2023/01/16 04:45:02;;;;;;;140.50;58.42;;;;;;;;;;4901122;29;20048;-84
2023/01/16 04:47:50;;;;;;;145.27;61.08;;;;;;;;;;4902218;29;20037;-84
2023/01/16 04:50:35;;;;;;;146.05;58.72;;;;;;;;;;4902062;29;20044;-84
2023/01/16 04:53:21;;;;;;;154.27;65.10;;;;;;;;;;4901588;29;20036;-83
2023/01/16 04:56:06;;;;;;;138.63;57.83;;;;;;;;;;4901424;29;20052;-83
2023/01/16 04:58:52;;;;;;;140.82;58.17;;;;;;;;;;4901602;29;20044;-84
2023/01/16 05:01:37;;;;;;;141.50;60.83;;;;;;;;;;4899431;29;20501;-83
2023/01/16 05:04:23;;;;;;;138.75;56.08;;;;;;;;;;4901279;29;20040;-84
2023/01/16 05:07:09;;;;;;;121.22;50.53;;;;;;;;;;4901079;29;20040;-83
2023/01/16 05:09:54;;;;;;;132.45;60.60;;;;;;;;;;4901781;29;20452;-83
2023/01/16 05:12:40;;;;;;;135.50;57.58;;;;;;;;;;4900801;29;20049;-85
2023/01/16 05:15:25;;;;;;;134.38;57.95;;;;;;;;;;4900861;29;20044;-83
2023/01/16 05:18:11;;;;;;;149.30;64.22;;;;;;;;;;4900339;29;20052;-84
2023/01/16 05:20:57;;;;;;;151.30;63.90;;;;;;;;;;4901042;29;20388;-85
2023/01/16 05:23:42;;;;;;;144.13;54.17;;;;;;;;;;4886174;29;20490;-84
2023/01/16 05:26:28;;;;;;;129.75;52.35;;;;;;;;;;4900326;29;20044;-84
2023/01/16 05:29:13;;;;;;;131.43;54.67;;;;;;;;;;4899552;29;20048;-84
2023/01/16 05:31:59;;;;;;;142.73;56.65;;;;;;;;;;4878321;29;20490;-85
2023/01/16 05:34:44;;;;;;;141.15;59.40;;;;;;;;;;4900487;29;20052;-85
2023/01/16 05:37:29;;;;;;;111.82;44.65;;;;;;;;;;4893433;29;20040;-84
2023/01/16 05:40:15;;;;;;;135.73;52.40;;;;;;;;;;4900711;29;20044;-84
2023/01/16 05:43:00;;;;;;;42.95;19.15;;;;;;;;;;4903884;29;20486;-83
2023/01/16 05:45:46;;;;;;;34.53;16.52;;;;;;;;;;4900935;29;20044;-83
2023/01/16 05:48:32;;;;;;;15.82;8.98;;;;;;;;;;4893996;29;20048;-84
2023/01/16 05:51:17;;;;;;;32.35;16.65;;;;;;;;;;4900202;29;20052;-84
2023/01/16 05:54:03;;;;;;;95.03;42.67;;;;;;;;;;4900675;29;20391;-83
2023/01/16 05:56:48;;;;;;;38.05;18.38;;;;;;;;;;4900287;29;20044;-83
2023/01/16 05:59:34;;;;;;;109.03;44.45;;;;;;;;;;4891719;29;20399;-85
2023/01/16 06:02:20;;;;;;;91.38;43.25;;;;;;;;;;4900337;29;20040;-85
2023/01/16 06:05:06;;;;;;;62.25;27.38;;;;;;;;;;4899973;29;20040;-85
2023/01/16 06:07:55;;;;;;;38.70;16.83;;;;;;;;;;4892408;29;20044;-84
2023/01/16 06:10:40;;;;;;;44.22;21.42;;;;;;;;;;4892350;29;20048;-84
2023/01/16 06:13:26;;;;;;;25.80;13.15;;;;;;;;;;4900327;29;20048;-85
2023/01/16 06:16:11;;;;;;;18.10;9.68;;;;;;;;;;4893282;29;20060;-85
2023/01/16 06:18:57;;;;;;;17.65;10.07;;;;;;;;;;4900582;29;20052;-84
2023/01/16 06:21:44;;;;;;;25.92;13.00;;;;;;;;;;4900344;29;20053;-85
2023/01/16 06:24:29;;;;;;;24.52;12.88;;;;;;;;;;4900230;29;20048;-84
2023/01/16 06:27:14;;;;;;;24.33;13.20;;;;;;;;;;4892946;29;20041;-83
2023/01/16 06:30:00;;;;;;;29.02;14.98;;;;;;;;;;4885431;29;20052;-83
2023/01/16 06:32:50;;;;;;;27.45;14.80;;;;;;;;;;4899029;29;20044;-84
2023/01/16 06:35:35;;;;;;;19.77;11.00;;;;;;;;;;4899780;29;20045;-84
2023/01/16 06:38:21;;;;;;;17.30;11.05;;;;;;;;;;4904838;29;20041;-84
2023/01/16 06:41:07;;;;;;;24.33;13.88;;;;;;;;;;4892426;29;20056;-83
2023/01/16 06:43:52;;;;;;;23.60;10.68;;;;;;;;;;4899507;29;20054;-84
2023/01/16 06:46:38;;;;;;;17.10;8.80;;;;;;;;;;4899460;29;20048;-84
2023/01/16 06:49:23;;;;;;;18.92;11.02;;;;;;;;;;4885491;29;20045;-86
2023/01/16 06:52:08;;;;;;;16.08;9.25;;;;;;;;;;4899307;29;20049;-85
2023/01/16 06:54:54;;;;;;;23.63;11.00;;;;;;;;;;4900165;29;20036;-84
2023/01/16 06:57:39;;;;;;;45.53;22.70;;;;;;;;;;4900484;29;20049;-85
2023/01/16 07:00:25;;;;;;;116.70;55.25;;;;;;;;;;4902228;29;20044;-83
2023/01/16 07:03:10;;;;;;;25.05;12.75;;;;;;;;;;4897791;29;20041;-83
2023/01/16 07:05:56;;;;;;;15.95;9.20;;;;;;;;;;4899232;29;20423;-83
2023/01/16 07:08:42;;;;;;;37.53;18.50;;;;;;;;;;4899213;29;20048;-80
2023/01/16 07:11:28;;;;;;;24.27;12.15;;;;;;;;;;4898891;29;20483;-80
2023/01/16 07:23:28;;;;;;;55.65;26.38;;;;;;;;;;4898609;29;20066;-81
2023/01/16 07:26:18;;;;;;;103.07;51.75;;;;;;;;;;4898487;29;20048;-82
2023/01/16 07:29:03;;;;;;;62.90;31.75;;;;;;;;;;4898349;29;20052;-82
2023/01/16 07:31:49;;;;;;;34.45;17.08;;;;;;;;;;4898029;29;20044;-82
2023/01/16 07:34:35;;;;;;;23.38;13.02;;;;;;;;;;4904926;29;20044;-83
2023/01/16 07:37:20;;;;;;;13.27;8.32;;;;;;;;;;4890457;29;20045;-84
2023/01/16 07:40:07;;;;;;;24.80;12.90;;;;;;;;;;4898344;29;20041;-83
2023/01/16 07:42:52;;;;;;;18.17;10.50;;;;;;;;;;4900242;29;20044;-83
2023/01/16 07:45:38;;;;;;;23.52;12.70;;;;;;;;;;4894895;29;20044;-85
2023/01/16 07:48:23;;;;;;;24.27;12.95;;;;;;;;;;4902303;29;20048;-85
2023/01/16 07:51:08;;;;;;;16.13;8.95;;;;;;;;;;4894830;29;20049;-84
2023/01/16 07:53:54;;;;;;;16.60;10.23;;;;;;;;;;4902518;29;20052;-84
2023/01/16 07:56:40;;;;;;;25.27;13.82;;;;;;;;;;4903130;29;20494;-86
2023/01/16 07:59:25;;;;;;;18.17;11.15;;;;;;;;;;4905344;29;20483;-86
2023/01/16 08:02:10;;;;;;;20.85;9.07;;;;;;;;;;4906470;29;20044;-83
2023/01/16 08:04:56;;;;;;;22.00;12.77;;;;;;;;;;4908260;29;20439;-86
2023/01/16 08:07:43;;;;;;;18.10;10.50;;;;;;;;;;4902472;29;20036;-85
2023/01/16 08:10:28;;;;;;;22.33;11.27;;;;;;;;;;4897510;29;20044;-87
2023/01/16 08:13:14;;;;;;;16.98;9.55;;;;;;;;;;4903057;29;20044;-84
2023/01/16 08:15:58;;;;;;;13.80;8.18;;;;;;;;;;4903176;29;20048;-86
2023/01/16 08:18:48;;;;;;;23.90;12.32;;;;;;;;;;4894126;29;20044;-86
2023/01/16 08:21:33;;;;;;;21.00;11.35;;;;;;;;;;4901795;29;20052;-85
2023/01/16 08:24:19;;;;;;;13.25;7.22;;;;;;;;;;4901940;29;20049;-86
2023/01/16 08:27:05;;;;;;;18.05;10.63;;;;;;;;;;4902767;29;20049;-85
2023/01/16 08:29:50;;;;;;;13.05;7.95;;;;;;;;;;4903196;29;20048;-85
2023/01/16 08:32:36;;;;;;;15.18;9.30;;;;;;;;;;4882312;29;20406;-84
2023/01/16 08:35:20;;;;;;;15.38;8.98;;;;;;;;;;4894261;29;20053;-86
2023/01/16 08:38:06;;;;;;;19.40;10.77;;;;;;;;;;4891593;29;20048;-85
2023/01/16 08:40:51;;;;;;;17.20;10.30;;;;;;;;;;4901369;29;20044;-86
2023/01/16 08:52:50;;;;;;;16.15;9.35;;;;;;;;;;4901238;29;20040;-84
2023/01/16 08:55:36;;;;;;;14.20;8.85;;;;;;;;;;4904763;29;20052;-84
2023/01/16 08:58:21;;;;;;;16.60;8.90;;;;;;;;;;4901321;29;20040;-84
2023/01/16 09:01:07;;;;;;;25.15;14.88;;;;;;;;;;4900831;29;20057;-84
2023/01/16 09:03:52;;;;;;;20.98;12.23;;;;;;;;;;4892890;29;20482;-85
2023/01/16 09:06:38;;;;;;;22.60;12.27;;;;;;;;;;4900531;29;20048;-85
2023/01/16 09:09:24;;;;;;;20.55;11.55;;;;;;;;;;4893475;29;20056;-85
2023/01/16 09:15:14;;;;;;;26.33;13.65;;;;;;;;;;4893073;29;20040;-84
2023/01/16 09:17:59;;;;;;;17.38;9.90;;;;;;;;;;4905977;29;20048;-84
2023/01/16 09:20:44;;;;;;;11.65;7.65;;;;;;;;;;4887035;29;20056;-85
2023/01/16 09:23:30;;;;;;;25.92;13.00;;;;;;;;;;4893047;29;20048;-85
2023/01/16 09:26:17;;;;;;;22.20;10.55;;;;;;;;;;4900611;29;20120;-84
2023/01/16 09:29:03;;;;;;;20.38;10.77;;;;;;;;;;4900421;29;20048;-84
2023/01/16 09:31:48;;;;;;;16.15;10.57;;;;;;;;;;4900468;29;20041;-84
2023/01/16 09:34:38;;;;;;;18.65;11.07;;;;;;;;;;4900683;29;20052;-83
2023/01/16 09:37:23;;;;;;;20.45;11.57;;;;;;;;;;4900664;29;20041;-80
2023/01/16 09:40:21;;;;;;;19.63;10.32;;;;;;;;;;4900276;29;20048;-82
2023/01/16 09:46:24;;;;;;;21.48;11.82;;;;;;;;;;4900583;29;20052;-79
2023/01/16 09:49:28;;;;;;;24.70;14.05;;;;;;;;;;4906711;29;20044;-82
2023/01/16 09:58:42;;;;;;;33.75;15.80;;;;;;;;;;4900022;29;20049;-81
2023/01/16 10:01:36;;;;;;;22.48;12.77;;;;;;;;;;4886715;29;20057;-79
2023/01/16 10:04:24;;;;;;;19.15;11.70;;;;;;;;;;4905443;29;20056;-80
2023/01/16 10:07:25;;;;;;;22.15;12.18;;;;;;;;;;4905881;29;20044;-79
2023/01/16 10:10:33;;;;;;;25.27;13.90;;;;;;;;;;4906091;29;20040;-81
2023/01/16 10:13:31;;;;;;;18.58;10.10;;;;;;;;;;4906344;29;20036;-80
2023/01/16 10:16:28;;;;;;;21.83;11.23;;;;;;;;;;4899795;29;20053;-81
2023/01/16 10:19:14;;;;;;;21.00;12.82;;;;;;;;;;4899431;29;20041;-83
2023/01/16 10:22:33;;;;;;;21.35;11.35;;;;;;;;;;4900235;29;20048;-80
2023/01/16 10:25:30;;;;;;;14.55;8.90;;;;;;;;;;4899784;29;20049;-82
2023/01/16 10:28:35;;;;;;;17.52;10.35;;;;;;;;;;4906098;29;20049;-79
2023/01/16 10:31:28;;;;;;;34.25;19.33;;;;;;;;;;4899623;29;20045;-80
2023/01/16 10:34:23;;;;;;;30.07;16.63;;;;;;;;;;4899430;29;20052;-80
2023/01/16 10:37:08;;;;;;;21.52;12.73;;;;;;;;;;4899350;29;20048;-82
2023/01/16 10:39:55;;;;;;;27.35;16.10;;;;;;;;;;4905586;29;20049;-81
2023/01/16 10:49:27;;;;;;;16.35;10.32;;;;;;;;;;4899864;29;20363;-89
2023/01/16 10:52:13;;;;;;;23.40;10.90;;;;;;;;;;4899440;29;20479;-82
2023/01/16 10:55:00;;;;;;;16.52;9.80;;;;;;;;;;4898936;29;20049;-80
2023/01/16 10:58:11;;;;;;;15.43;9.20;;;;;;;;;;4899215;29;20045;-80
2023/01/16 11:01:04;;;;;;;27.20;13.25;;;;;;;;;;4898623;29;20053;-81
2023/01/16 11:03:53;;;;;;;25.10;14.45;;;;;;;;;;4905359;29;20483;-82
2023/01/16 11:06:41;;;;;;;25.63;14.70;;;;;;;;;;4898111;29;20053;-86
2023/01/16 11:09:55;;;;;;;21.23;13.15;;;;;;;;;;4907062;29;20049;-92
2023/01/16 13:59:01;;;;;;;17.10;10.13;;;;;;;;;;4918823;29;20056;-92
2023/01/16 14:02:37;;;;;;;12.20;7.45;;;;;;;;;;4827586;29;20082;-87
2023/01/16 14:40:18;;;;;;;11.30;7.53;;;;;;;;;;4850118;29;20536;-85
2023/01/16 14:56:55;;;;;;;24.35;11.07;;;;;;;;;;4906104;29;20056;-86
2023/01/16 15:00:30;;;;;;;18.95;9.07;;;;;;;;;;4899577;29;20052;-92
2023/01/16 15:03:41;;;;;;;34.38;17.45;;;;;;;;;;4892817;29;20036;-90
2023/01/16 15:06:42;;;;;;;33.05;16.90;;;;;;;;;;4892209;29;20052;-85
2023/01/16 15:10:03;;;;;;;16.70;9.23;;;;;;;;;;4898540;29;20064;-86
2023/01/16 15:13:24;;;;;;;25.17;14.63;;;;;;;;;;4898144;29;20052;-85
2023/01/16 15:23:23;;;;;;;28.15;15.50;;;;;;;;;;4904441;29;20068;-86
2023/01/16 15:26:20;;;;;;;26.02;15.88;;;;;;;;;;4895207;29;20044;-89
2023/01/16 15:29:14;;;;;;;35.55;18.05;;;;;;;;;;4895449;29;20036;-84
2023/01/16 15:32:17;;;;;;;102.32;43.97;;;;;;;;;;4891244;29;20048;-86
2023/01/16 15:35:25;;;;;;;25.75;16.10;;;;;;;;;;4887563;29;20048;-86
2023/01/16 15:38:11;;;;;;;42.88;15.85;;;;;;;;;;4901543;29;20045;-86
2023/01/16 15:40:57;;;;;;;54.45;20.48;;;;;;;;;;4898538;29;20044;-87
2023/01/16 15:47:05;;;;;;;295.60;134.63;;;;;;;;;;4899254;29;20052;-87
2023/01/16 15:50:28;;;;;;;36.73;20.67;;;;;;;;;;4891415;29;20376;-86
2023/01/16 15:53:12;;;;;;;39.65;23.98;;;;;;;;;;4900911;29;20513;-85
2023/01/16 15:56:04;;;;;;;29.80;15.95;;;;;;;;;;4898578;29;20044;-88
2023/01/16 15:58:52;;;;;;;25.48;15.35;;;;;;;;;;4902766;29;20411;-87
2023/01/16 16:01:38;;;;;;;57.45;23.95;;;;;;;;;;4897425;29;20049;-84
2023/01/16 16:04:23;;;;;;;33.38;18.73;;;;;;;;;;4902084;29;20491;-86
2023/01/16 16:07:10;;;;;;;19.08;10.05;;;;;;;;;;4907051;29;20057;-84
2023/01/16 16:09:59;;;;;;;16.45;10.95;;;;;;;;;;4901911;29;20393;-87
2023/01/16 16:12:44;;;;;;;23.33;13.68;;;;;;;;;;4902094;29;20048;-83
2023/01/16 16:18:33;;;;;;;25.42;10.98;;;;;;;;;;4904328;29;20045;-87
2023/01/16 16:21:21;;;;;;;22.63;12.07;;;;;;;;;;4908307;29;20048;-87
2023/01/16 16:24:11;;;;;;;61.20;28.02;;;;;;;;;;4906518;29;20045;-85
2023/01/16 16:26:57;;;;;;;24.17;14.55;;;;;;;;;;4902209;29;20078;-82
2023/01/16 16:29:50;;;;;;;34.85;22.02;;;;;;;;;;4902040;29;20040;-85
2023/01/16 16:32:37;;;;;;;33.42;20.67;;;;;;;;;;4901817;29;20052;-84
2023/01/16 16:35:26;;;;;;;27.42;16.25;;;;;;;;;;4894446;29;20045;-84
2023/01/16 16:38:21;;;;;;;21.90;11.93;;;;;;;;;;4902232;29;20045;-84
2023/01/16 16:41:06;;;;;;;;;;;;;;;;;;4902772;29;20053;-86
2023/01/16 16:43:57;;;;;;;;;;;;;;;;;;4901899;29;19915;-83
2023/01/16 16:46:42;;;;;;;21.98;12.40;;;;;;;;;;4901712;29;19915;-86
2023/01/16 16:49:30;;;;;;;29.80;17.85;;;;;;;;;;4901489;29;20044;-83
2023/01/16 16:52:41;;;;;;;34.45;21.90;;;;;;;;;;4901276;29;20048;-84
2023/01/16 16:55:38;;;;;;;129.70;63.88;;;;;;;;;;4893376;29;20052;-83
2023/01/16 16:58:27;;;;;;;129.27;71.45;;;;;;;;;;4905470;29;20402;-83
2023/01/16 17:01:13;;;;;;;40.65;22.02;;;;;;;;;;4901294;29;20052;-83
2023/01/16 17:04:03;;;;;;;41.85;25.17;;;;;;;;;;4901141;29;20040;-83
2023/01/16 17:06:51;;;;;;;37.55;20.02;;;;;;;;;;4901453;29;20044;-82
2023/01/16 17:09:36;;;;;;;29.27;16.10;;;;;;;;;;4906319;29;20044;-84
2023/01/16 17:12:22;;;;;;;30.35;16.98;;;;;;;;;;4899995;29;20486;-88
2023/01/16 17:15:10;;;;;;;96.57;48.97;;;;;;;;;;4905871;29;20048;-88
2023/01/16 17:17:59;;;;;;;91.60;43.10;;;;;;;;;;4886961;29;20045;-88
2023/01/16 17:20:44;;;;;;;41.15;22.15;;;;;;;;;;4900825;29;20044;-83
2023/01/16 17:23:29;;;;;;;150.60;76.93;;;;;;;;;;4900908;29;20068;-84
2023/01/16 17:26:15;;;;;;;35.30;18.50;;;;;;;;;;4900464;29;20045;-86
2023/01/16 17:29:00;;;;;;;98.88;46.20;;;;;;;;;;4900622;29;20479;-88
2023/01/16 17:31:47;;;;;;;75.88;37.72;;;;;;;;;;4892886;29;20044;-84
2023/01/16 17:34:33;;;;;;;53.42;28.92;;;;;;;;;;4899848;29;20056;-84
2023/01/16 17:37:18;;;;;;;50.13;27.33;;;;;;;;;;4900409;29;20044;-84
2023/01/16 17:40:04;;;;;;;65.22;34.50;;;;;;;;;;4905282;29;20044;-84
2023/01/16 17:45:55;;;;;;;55.65;30.02;;;;;;;;;;4906044;29;20060;-83
2023/01/16 17:48:41;;;;;;;48.35;26.27;;;;;;;;;;4900349;29;20037;-83
2023/01/16 17:51:27;;;;;;;38.40;21.35;;;;;;;;;;4900605;29;20044;-87
2023/01/16 17:55:50;;;;;;;36.75;20.80;;;;;;;;;;4899495;29;20060;-87
2023/01/16 17:57:18;;;;;;;40.47;22.70;;;;;;;;;;4900096;29;20049;-88
2023/01/16 18:00:05;;;;;;;35.45;20.45;;;;;;;;;;4899720;29;20045;-88
2023/01/16 18:02:51;;;;;;;45.78;24.70;;;;;;;;;;4900436;29;20048;-88
2023/01/16 18:05:36;;;;;;;46.70;25.42;;;;;;;;;;4905373;29;20044;-83
2023/01/16 18:08:21;;;;;;;42.28;23.08;;;;;;;;;;4900366;29;20061;-87
2023/01/16 18:17:23;;;;;;;31.80;18.38;;;;;;;;;;4899578;29;20044;-88
2023/01/16 18:20:11;;;;;;;23.85;14.10;;;;;;;;;;4900174;29;20040;-85
2023/01/16 18:22:57;;;;;;;24.33;12.73;;;;;;;;;;4900015;29;20048;-83
2023/01/16 18:25:46;;;;;;;20.75;12.73;;;;;;;;;;4904977;29;20048;-88
2023/01/16 18:28:31;;;;;;;25.20;13.85;;;;;;;;;;4892076;29;20041;-88
2023/01/16 18:31:18;;;;;;;23.40;12.93;;;;;;;;;;4898705;29;20490;-83
2023/01/16 18:34:04;;;;;;;20.50;12.13;;;;;;;;;;4900317;29;20375;-87
2023/01/16 18:36:49;;;;;;;24.80;13.30;;;;;;;;;;4899845;29;20052;-83
2023/01/16 19:04:06;;;;;;;26.17;14.75;;;;;;;;;;4899209;29;20048;-83
2023/01/16 19:06:57;;;;;;;26.98;15.35;;;;;;;;;;4899273;29;20040;-86
2023/01/16 19:09:43;;;;;;;44.78;24.73;;;;;;;;;;4898848;29;20048;-82
2023/01/16 19:12:34;;;;;;;106.75;43.70;;;;;;;;;;4899023;29;20410;-86
2023/01/16 19:15:21;;;;;;;42.13;22.13;;;;;;;;;;4899190;29;20052;-82
2023/01/16 19:18:06;;;;;;;35.80;20.83;;;;;;;;;;4898676;29;20423;-83
2023/01/16 19:20:51;;;;;;;21.70;12.95;;;;;;;;;;4898628;29;20049;-85
2023/01/16 19:23:37;;;;;;;18.58;11.73;;;;;;;;;;4898231;29;20391;-82
2023/01/16 19:26:22;;;;;;;23.17;13.00;;;;;;;;;;4890781;29;20049;-82
2023/01/16 19:29:15;;;;;;;30.52;17.13;;;;;;;;;;4903829;29;20483;-82
2023/01/16 19:32:04;;;;;;;25.30;14.80;;;;;;;;;;4903852;29;20048;-82
2023/01/16 19:34:51;;;;;;;23.02;10.93;;;;;;;;;;4898871;29;20056;-82
2023/01/16 19:37:43;;;;;;;21.90;13.27;;;;;;;;;;4897387;29;20048;-83
2023/01/16 19:40:29;;;;;;;21.50;13.07;;;;;;;;;;4898512;29;20041;-84
2023/01/16 19:49:34;;;;;;;16.08;9.35;;;;;;;;;;4898073;29;20040;-88
2023/01/16 19:52:19;;;;;;;15.48;9.48;;;;;;;;;;4884109;29;20045;-85
2023/01/16 19:55:05;;;;;;;244.00;132.35;;;;;;;;;;4884408;29;20048;-81
2023/01/16 19:57:50;;;;;;;16.90;10.60;;;;;;;;;;4898188;29;20056;-82
2023/01/16 20:00:35;;;;;;;20.92;10.48;;;;;;;;;;4897684;29;20044;-81
2023/01/16 20:03:21;;;;;;;36.05;20.02;;;;;;;;;;4898144;29;20443;-81
2023/01/16 20:06:07;;;;;;;53.53;22.75;;;;;;;;;;4897205;29;20044;-82
2023/01/16 20:08:52;;;;;;;25.17;13.50;;;;;;;;;;4898151;29;20482;-82
2023/01/16 20:14:42;;;;;;;18.25;10.75;;;;;;;;;;4898073;29;20057;-81
2023/01/16 20:17:33;;;;;;;15.57;9.25;;;;;;;;;;4898203;29;20056;-82
2023/01/16 20:20:19;;;;;;;30.73;16.10;;;;;;;;;;4897872;29;20036;-84
2023/01/16 20:23:04;;;;;;;36.15;21.35;;;;;;;;;;4896919;29;20053;-83
2023/01/16 20:25:50;;;;;;;21.30;12.65;;;;;;;;;;4898412;29;20040;-84
2023/01/16 20:28:37;;;;;;;17.30;10.73;;;;;;;;;;4898077;29;20390;-82
2023/01/16 20:31:24;;;;;;;21.50;13.70;;;;;;;;;;4897779;29;20041;-82
2023/01/16 20:34:10;;;;;;;33.13;16.00;;;;;;;;;;4903052;29;20056;-86
2023/01/16 20:36:56;;;;;;;19.38;11.85;;;;;;;;;;4896740;29;20048;-79
2023/01/16 20:39:40;;;;;;;19.77;11.23;;;;;;;;;;4897596;29;20052;-80
2023/01/16 20:45:54;;;;;;;18.15;10.68;;;;;;;;;;4864322;29;20488;-82
2023/01/16 20:48:39;;;;;;;17.98;10.63;;;;;;;;;;4864541;29;20049;-81
2023/01/16 20:51:25;;;;;;;16.35;10.10;;;;;;;;;;4897288;29;20040;-80
2023/01/16 20:54:11;;;;;;;17.95;9.30;;;;;;;;;;4900899;29;20415;-82
2023/01/16 20:56:58;;;;;;;19.85;12.10;;;;;;;;;;4901213;29;20435;-82
2023/01/16 20:59:43;;;;;;;21.00;11.98;;;;;;;;;;4900532;29;20052;-80
2023/01/16 21:02:29;;;;;;;18.20;10.70;;;;;;;;;;4900448;29;20056;-82
2023/01/16 21:05:15;;;;;;;21.30;12.73;;;;;;;;;;4901125;29;20049;-81
2023/01/16 21:08:01;;;;;;;25.02;12.57;;;;;;;;;;4901043;29;20048;-83
2023/01/16 21:10:47;;;;;;;32.03;17.67;;;;;;;;;;4901486;29;20041;-79
2023/01/16 21:22:48;;;;;;;49.47;26.65;;;;;;;;;;4899982;29;20052;-84
2023/01/16 21:25:34;;;;;;;39.63;20.90;;;;;;;;;;4900337;29;20056;-85
2023/01/16 21:28:19;;;;;;;41.38;22.75;;;;;;;;;;4898722;29;20403;-80
2023/01/16 21:31:11;;;;;;;55.83;29.70;;;;;;;;;;4899670;29;20041;-80
2023/01/16 21:33:56;;;;;;;35.28;19.42;;;;;;;;;;4907058;29;20443;-82
2023/01/16 21:36:43;;;;;;;58.03;30.80;;;;;;;;;;4900423;29;20040;-81
2023/01/16 21:39:29;;;;;;;19.95;11.65;;;;;;;;;;4906767;29;20048;-82
2023/01/16 21:48:23;;;;;;;31.77;18.27;;;;;;;;;;4899586;29;20045;-82
2023/01/16 21:51:08;;;;;;;34.35;19.92;;;;;;;;;;4898146;29;20041;-80
2023/01/16 21:53:54;;;;;;;23.77;14.30;;;;;;;;;;4900230;29;20048;-81
2023/01/16 21:56:40;;;;;;;25.15;14.85;;;;;;;;;;4885841;29;20057;-81
2023/01/16 21:59:24;;;;;;;23.17;13.07;;;;;;;;;;4901545;29;20482;-81
2023/01/16 22:02:13;;;;;;;24.88;15.43;;;;;;;;;;4899910;29;20041;-79
2023/01/16 22:04:58;;;;;;;31.88;17.80;;;;;;;;;;4900486;29;20402;-82
2023/01/16 22:07:43;;;;;;;43.92;21.58;;;;;;;;;;4899473;29;20052;-81
2023/01/16 22:10:29;;;;;;;50.13;26.80;;;;;;;;;;4899288;29;20040;-80
2023/01/16 22:19:31;;;;;;;66.32;33.75;;;;;;;;;;4900042;29;20052;-82
2023/01/16 22:22:23;;;;;;;27.48;14.68;;;;;;;;;;4906454;29;20048;-82
2023/01/16 22:25:09;;;;;;;28.55;15.27;;;;;;;;;;4899661;29;20040;-79
2023/01/16 22:27:55;;;;;;;25.30;12.13;;;;;;;;;;4900126;29;20045;-81
2023/01/16 22:30:40;;;;;;;107.72;50.10;;;;;;;;;;4905563;29;20052;-76
2023/01/16 22:33:26;;;;;;;32.10;17.58;;;;;;;;;;4899541;29;20399;-77
2023/01/16 22:36:12;;;;;;;29.13;15.63;;;;;;;;;;4906158;29;20482;-79